Time;durP1;ratioP1;P1;durP2;ratioP2;P2;SDS_P1;SDS_P2;PMS_P1;PMS_P2;Temp;Humidity;BMP_temperature;BMP_pressure;BME280_temperature;BME280_humidity;BME280_pressure;Samples;Min_cycle;Max_cycle;Signal;HPM_P1;HPM_P2
2023/02/04 00:01:18;;;;;;;;;;;;;;;4.91;72.92;101707.06;4121961;28;20012;-63
2023/02/04 00:03:20;;;;;;;;;;;;;;;4.90;72.47;101708.03;4123027;28;20390;-63
2023/02/04 00:05:22;;;;;;;;;;;;;;;4.87;71.93;101717.13;4122764;28;20013;-63
2023/02/04 00:07:24;;;;;;;;;;;;;;;4.85;72.15;101717.25;4122087;28;20040;-61
2023/02/04 00:09:26;;;;;;;;;;;;;;;4.84;72.13;101731.63;4123021;28;19930;-63
2023/02/04 00:11:28;;;;;;;;;;;;;;;4.86;72.26;101745.72;4122763;28;20020;-62
2023/02/04 00:13:31;;;;;;;;;;;;;;;4.85;71.86;101759.22;4122582;28;20009;-63
2023/02/04 00:15:33;;;;;;;;;;;;;;;4.82;71.71;101773.69;4122921;28;20016;-63
2023/02/04 00:17:36;;;;;;;;;;;;;;;4.81;72.36;101773.81;4123950;28;20040;-63
2023/02/04 00:19:38;;;;;;;;;;;;;;;4.80;72.42;101780.97;4122461;28;20444;-62
2023/02/04 00:21:40;;;;;;;;;;;;;;;4.85;72.97;101781.50;4122474;28;20016;-60
2023/02/04 00:23:42;;;;;;;;;;;;;;;4.86;72.81;101793.91;4122909;28;20512;-62
2023/02/04 00:25:44;;;;;;;;;;;;;;;4.86;73.07;101790.41;4122318;28;20029;-62
2023/02/04 00:27:46;;;;;;;;;;;;;;;4.85;72.83;101805.59;4122381;28;20036;-62
2023/02/04 00:29:49;;;;;;;;;;;;;;;4.82;72.99;101810.31;4123581;28;19930;-61
2023/02/04 00:31:51;;;;;;;;;;;;;;;4.81;73.30;101814.81;4121352;28;20020;-62
2023/02/04 00:33:53;;;;;;;;;;;;;;;4.80;73.15;101829.16;4120888;28;20364;-62
2023/02/04 00:35:55;;;;;;;;;;;;;;;4.77;73.39;101820.50;4122317;28;19925;-62
2023/02/04 00:37:57;;;;;;;;;;;;;;;4.73;73.31;101840.44;4122008;28;20060;-63
2023/02/04 00:40:01;;;;;;;;;;;;;;;4.65;73.24;101852.53;4120637;28;20033;-63
2023/02/04 00:42:04;;;;;;;;;;;;;;;4.59;73.98;101863.72;4121913;28;20041;-62
2023/02/04 00:44:06;;;;;;;;;;;;;;;4.54;74.13;101865.00;4120846;28;20016;-62
2023/02/04 00:46:10;;;;;;;;;;;;;;;4.50;74.28;101875.06;4121442;28;20024;-63
2023/02/04 00:48:13;;;;;;;;;;;;;;;4.48;74.34;101888.56;4129327;28;20009;-62
2023/02/04 00:50:15;;;;;;;;;;;;;;;4.48;74.44;101898.38;4121263;28;20020;-63
2023/02/04 00:52:18;;;;;;;;;;;;;;;4.45;74.12;101904.81;4122041;28;20017;-63
2023/02/04 00:54:20;;;;;;;;;;;;;;;4.45;74.21;101923.56;4120958;28;19980;-63
2023/02/04 00:56:22;;;;;;;;;;;;;;;4.48;74.12;101917.97;4128734;28;20009;-64
2023/02/04 00:58:24;;;;;;;;;;;;;;;4.47;73.58;101932.31;4122569;28;20041;-63
2023/02/04 01:00:26;;;;;;;;;;;;;;;4.45;72.94;101944.94;4136624;28;20029;-63
2023/02/04 01:02:30;;;;;;;;;;;;;;;4.46;73.29;101953.81;4121554;28;20025;-63
2023/02/04 01:04:32;;;;;;;;;;;;;;;4.47;72.98;101971.59;4122480;28;20029;-63
2023/02/04 01:06:34;;;;;;;;;;;;;;;4.44;72.13;101979.84;4122210;28;20024;-64
2023/02/04 01:08:36;;;;;;;;;;;;;;;4.41;72.28;101978.22;4120199;28;20020;-62
2023/02/04 01:10:38;;;;;;;;;;;;;;;4.38;71.68;101988.28;4122185;28;19926;-63
2023/02/04 01:12:40;;;;;;;;;;;;;;;4.32;70.99;101992.22;4120696;28;20372;-63
2023/02/04 01:14:42;;;;;;;;;;;;;;;4.28;70.97;102004.97;4121820;28;20053;-63
2023/02/04 01:16:44;;;;;;;;;;;;;;;4.26;71.31;102001.53;4120544;28;20025;-62
2023/02/04 01:18:48;;;;;;;;;;;;;;;4.23;70.98;102012.44;4120296;28;20016;-63
2023/02/04 01:20:50;;;;;;;;;;;;;;;4.20;70.54;102022.47;4120073;28;20012;-63
2023/02/04 01:22:52;;;;;;;;;;;;;;;4.16;70.70;102027.19;4129294;28;20475;-63
2023/02/04 01:24:54;;;;;;;;;;;;;;;4.13;70.60;102030.91;4120743;28;20618;-63
2023/02/04 01:27:15;;;;;;;;;;;;;;;4.14;70.94;102040.66;4122274;28;20373;-64
2023/02/04 01:29:17;;;;;;;;;;;;;;;4.10;70.67;102047.16;4122431;28;19925;-63
2023/02/04 01:31:19;;;;;;;;;;;;;;;4.07;70.36;102059.88;4120590;28;20470;-63
2023/02/04 01:33:23;;;;;;;;;;;;;;;4.06;70.60;102067.06;4120801;28;20475;-64
2023/02/04 01:35:27;;;;;;;;;;;;;;;4.08;70.75;102078.50;4119013;28;20025;-63
2023/02/04 01:37:29;;;;;;;;;;;;;;;4.05;70.18;102089.41;4119636;28;20386;-63
2023/02/04 01:39:31;;;;;;;;;;;;;;;4.03;70.08;102090.44;4120267;28;20448;-63
2023/02/04 01:41:33;;;;;;;;;;;;;;;4.00;69.90;102099.53;4121391;28;20033;-63
2023/02/04 01:43:35;;;;;;;;;;;;;;;3.95;69.41;102107.88;4122657;28;20013;-63
2023/02/04 01:45:37;;;;;;;;;;;;;;;3.92;69.89;102108.06;4121358;28;20447;-64
2023/02/04 01:47:38;;;;;;;;;;;;;;;3.91;69.70;102110.84;4120905;28;20013;-63
2023/02/04 01:49:41;;;;;;;;;;;;;;;3.88;69.65;102111.03;4120742;28;20021;-64
2023/02/04 01:51:44;;;;;;;;;;;;;;;3.84;69.78;102110.38;4121509;28;19977;-62
2023/02/04 01:53:46;;;;;;;;;;;;;;;3.85;70.29;102121.94;4120985;28;20495;-63
2023/02/04 01:55:48;;;;;;;;;;;;;;;3.82;70.14;102127.47;4121993;28;20012;-63
2023/02/04 01:57:51;;;;;;;;;;;;;;;3.77;70.27;102130.44;4119767;28;20025;-63
2023/02/04 01:59:54;;;;;;;;;;;;;;;3.75;70.53;102138.56;4120644;28;20021;-63
2023/02/04 02:01:56;;;;;;;;;;;;;;;3.74;70.72;102150.19;4120507;28;20017;-63
2023/02/04 02:03:58;;;;;;;;;;;;;;;3.75;71.05;102156.41;4121119;28;20028;-63
2023/02/04 02:06:01;;;;;;;;;;;;;;;3.78;71.29;102161.56;4134983;28;20020;-62
2023/02/04 02:08:05;;;;;;;;;;;;;;;3.77;71.46;102178.53;4121635;28;20446;-62
2023/02/04 02:10:08;;;;;;;;;;;;;;;3.78;71.63;102181.13;4120357;28;20032;-62
2023/02/04 02:12:11;;;;;;;;;;;;;;;3.81;71.37;102182.75;4124313;28;20003;-62
2023/02/04 02:14:13;;;;;;;;;;;;;;;3.80;71.66;102205.06;4123827;28;20468;-61
2023/02/04 02:16:15;;;;;;;;;;;;;;;3.81;71.44;102209.47;4125600;28;20021;-62
2023/02/04 02:18:17;;;;;;;;;;;;;;;3.83;71.91;102204.88;4123820;28;20057;-63
2023/02/04 02:20:20;;;;;;;;;;;;;;;3.82;71.45;102211.16;4124308;28;20028;-62
2023/02/04 02:22:24;;;;;;;;;;;;;;;3.81;71.55;102212.16;4125275;28;20399;-63
2023/02/04 02:24:27;;;;;;;;;;;;;;;3.78;72.12;102218.53;4124435;28;20028;-63
2023/02/04 02:26:29;;;;;;;;;;;;;;;3.82;72.11;102226.34;4124021;28;20021;-63
2023/02/04 02:28:31;;;;;;;;;;;;;;;3.79;72.04;102235.41;4123568;28;20017;-63
2023/02/04 02:30:35;;;;;;;;;;;;;;;3.82;71.99;102245.06;4123639;28;20028;-61
2023/02/04 02:32:37;;;;;;;;;;;;;;;3.79;71.92;102238.09;4123244;28;20609;-62
2023/02/04 02:34:39;;;;;;;;;;;;;;;3.80;72.12;102253.19;4125415;28;20639;-61
2023/02/04 02:36:41;;;;;;;;;;;;;;;3.78;71.74;102241.72;4123631;28;20028;-63
2023/02/04 02:38:43;;;;;;;;;;;;;;;3.76;72.03;102259.66;4122664;28;20025;-62
2023/02/04 02:40:46;;;;;;;;;;;;;;;3.76;71.82;102256.97;4123953;28;20017;-62
2023/02/04 02:42:48;;;;;;;;;;;;;;;3.71;71.80;102270.63;4124283;28;20049;-63
2023/02/04 02:44:50;;;;;;;;;;;;;;;3.71;72.10;102281.31;4123717;28;20021;-63
2023/02/04 02:46:52;;;;;;;;;;;;;;;3.70;71.97;102286.75;4123061;28;20017;-62
2023/02/04 02:48:54;;;;;;;;;;;;;;;3.67;71.57;102286.94;4122681;28;20020;-63
2023/02/04 02:50:56;;;;;;;;;;;;;;;3.65;71.66;102299.53;4124397;28;20012;-62
2023/02/04 02:52:58;;;;;;;;;;;;;;;3.61;71.98;102304.22;4123765;28;20379;-63
2023/02/04 02:55:00;;;;;;;;;;;;;;;3.60;72.09;102300.72;4123661;28;20017;-59
2023/02/04 02:57:05;;;;;;;;;;;;;;;3.60;72.06;102302.50;4123257;28;20030;-62
2023/02/04 02:59:12;;;;;;;;;;;;;;;3.59;72.26;102307.00;4124345;28;20024;-62
2023/02/04 03:01:14;;;;;;;;;;;;;;;3.58;71.93;102312.44;4123231;28;20063;-62
2023/02/04 03:03:17;;;;;;;;;;;;;;;3.57;72.27;102322.25;4123087;28;20016;-61
2023/02/04 03:05:19;;;;;;;;;;;;;;;3.55;72.32;102328.66;4122676;28;20012;-61
2023/02/04 03:07:21;;;;;;;;;;;;;;;3.55;72.27;102329.50;4121991;28;20020;-62
2023/02/04 03:09:23;;;;;;;;;;;;;;;3.54;72.01;102335.81;4130139;28;20024;-62
2023/02/04 03:11:28;;;;;;;;;;;;;;;3.51;72.16;102346.69;4121736;28;20032;-61
2023/02/04 03:13:32;;;;;;;;;;;;;;;3.46;72.25;102351.41;4137864;28;20029;-62
2023/02/04 03:15:35;;;;;;;;;;;;;;;3.42;72.21;102357.91;4123060;28;20355;-62
2023/02/04 03:17:37;;;;;;;;;;;;;;;3.37;72.10;102360.84;4123329;28;20095;-63
2023/02/04 03:19:39;;;;;;;;;;;;;;;3.33;72.68;102374.47;4122446;28;20081;-62
2023/02/04 03:21:41;;;;;;;;;;;;;;;3.29;72.58;102371.13;4121822;28;20024;-62
2023/02/04 03:23:43;;;;;;;;;;;;;;;3.27;72.91;102373.00;4123339;28;20024;-62
2023/02/04 03:25:45;;;;;;;;;;;;;;;3.27;72.83;102385.50;4123156;28;20016;-63
2023/02/04 03:27:47;;;;;;;;;;;;;;;3.21;72.85;102384.91;4114087;28;20375;-63
2023/02/04 03:29:50;;;;;;;;;;;;;;;3.19;73.16;102396.63;4123126;28;20061;-63
2023/02/04 03:31:54;;;;;;;;;;;;;;;3.15;73.04;102401.28;4123856;28;20009;-63
2023/02/04 03:33:56;;;;;;;;;;;;;;;3.11;73.74;102410.41;4124484;28;20880;-62
2023/02/04 03:35:58;;;;;;;;;;;;;;;3.10;73.62;102415.84;4123362;28;20357;-62
2023/02/04 03:37:59;;;;;;;;;;;;;;;3.06;73.94;102424.03;4123903;28;20020;-63
2023/02/04 03:40:01;;;;;;;;;;;;;;;3.03;74.39;102424.19;4122864;28;20013;-62
2023/02/04 03:42:04;;;;;;;;;;;;;;;2.99;74.45;102427.13;4123716;28;20369;-62
2023/02/04 03:44:05;;;;;;;;;;;;;;;2.99;74.54;102435.13;4122806;28;20452;-62
2023/02/04 03:46:09;;;;;;;;;;;;;;;2.99;74.50;102438.66;4123624;28;20021;-62
2023/02/04 03:48:11;;;;;;;;;;;;;;;3.02;75.01;102441.16;4123247;28;20021;-63
2023/02/04 03:50:13;;;;;;;;;;;;;;;3.08;74.74;102458.63;4121446;28;20344;-62
2023/02/04 03:52:15;;;;;;;;;;;;;;;3.10;74.42;102464.75;4123598;28;20658;-63
2023/02/04 03:54:17;;;;;;;;;;;;;;;3.09;74.23;102467.50;4123432;28;19930;-63
2023/02/04 03:56:19;;;;;;;;;;;;;;;3.09;74.38;102479.06;4123737;28;20013;-63
2023/02/04 03:58:21;;;;;;;;;;;;;;;3.12;74.18;102486.00;4123310;28;20021;-63
2023/02/04 04:00:23;;;;;;;;;;;;;;;3.10;73.90;102493.25;4123254;28;20020;-63
2023/02/04 04:02:27;;;;;;;;;;;;;;;3.07;74.16;102494.28;4123489;28;20021;-63
2023/02/04 04:04:29;;;;;;;;;;;;;;;3.05;74.25;102496.19;4123169;28;20024;-61
2023/02/04 04:06:31;;;;;;;;;;;;;;;2.99;74.68;102499.19;4122468;28;20009;-64
2023/02/04 04:08:33;;;;;;;;;;;;;;;2.99;75.02;102512.53;4123021;28;20021;-63
2023/02/04 04:10:35;;;;;;;;;;;;;;;3.00;74.90;102512.44;4122371;28;20436;-63
2023/02/04 04:12:37;;;;;;;;;;;;;;;3.00;74.92;102522.28;4122799;28;20028;-62
2023/02/04 04:14:39;;;;;;;;;;;;;;;3.04;74.80;102530.03;4123291;28;19929;-63
2023/02/04 04:16:41;;;;;;;;;;;;;;;3.08;74.94;102535.22;4122773;28;20013;-63
2023/02/04 04:18:44;;;;;;;;;;;;;;;3.07;74.47;102531.66;4123322;28;20459;-63
2023/02/04 04:20:46;;;;;;;;;;;;;;;3.05;74.30;102538.91;4122732;28;20017;-62
2023/02/04 04:22:48;;;;;;;;;;;;;;;3.01;74.30;102540.00;4123442;28;20029;-63
2023/02/04 04:24:50;;;;;;;;;;;;;;;3.01;74.39;102545.34;4122744;28;20032;-63
2023/02/04 04:26:52;;;;;;;;;;;;;;;3.00;74.67;102552.50;4122180;28;20029;-63
2023/02/04 04:28:54;;;;;;;;;;;;;;;3.00;75.14;102551.66;4122508;28;20021;-63
2023/02/04 04:30:56;;;;;;;;;;;;;;;3.04;75.18;102570.09;4122711;28;20456;-63
2023/02/04 04:32:58;;;;;;;;;;;;;;;3.03;75.04;102572.84;4123064;28;20029;-62
2023/02/04 04:35:02;;;;;;;;;;;;;;;3.00;74.65;102575.66;4121121;28;20040;-60
2023/02/04 04:37:04;;;;;;;;;;;;;;;2.99;74.94;102582.78;4122276;28;20017;-63
2023/02/04 04:39:06;;;;;;;;;;;;;;;3.01;74.97;102583.59;4123025;28;20046;-63
2023/02/04 04:41:08;;;;;;;;;;;;;;;3.00;75.12;102583.69;4122032;28;20021;-63
2023/02/04 04:43:10;;;;;;;;;;;;;;;3.00;75.00;102589.00;4121904;28;20028;-63
2023/02/04 04:45:11;;;;;;;;;;;;;;;2.98;74.71;102593.56;4121997;28;20020;-62
2023/02/04 04:47:14;;;;;;;;;;;;;;;2.97;74.69;102603.38;4122217;28;20016;-63
2023/02/04 04:49:16;;;;;;;;;;;;;;;2.97;74.71;102608.72;4122003;28;20396;-64
2023/02/04 04:51:19;;;;;;;;;;;;;;;2.97;74.68;102608.72;4120906;28;19965;-63
2023/02/04 04:53:21;;;;;;;;;;;;;;;2.95;75.27;102623.09;4121728;28;20020;-63
2023/02/04 04:55:23;;;;;;;;;;;;;;;2.93;75.19;102632.97;4121599;28;19932;-63
2023/02/04 04:57:25;;;;;;;;;;;;;;;2.92;75.50;102633.94;4122176;28;20020;-63
2023/02/04 04:59:27;;;;;;;;;;;;;;;2.96;75.41;102639.03;4122166;28;20049;-63
2023/02/04 05:01:29;;;;;;;;;;;;;;;2.96;75.15;102648.84;4122652;28;20365;-63
2023/02/04 05:03:31;;;;;;;;;;;;;;;2.93;75.15;102654.34;4122348;28;20025;-63
2023/02/04 05:05:38;;;;;;;;;;;;;;;2.95;75.27;102661.31;4122138;28;20072;-63
2023/02/04 05:07:41;;;;;;;;;;;;;;;2.92;75.08;102663.31;4121573;28;20013;-63
2023/02/04 05:09:43;;;;;;;;;;;;;;;2.92;75.26;102671.31;4120784;28;20356;-63
2023/02/04 05:11:46;;;;;;;;;;;;;;;2.90;75.47;102674.06;4121551;28;20026;-63
2023/02/04 05:13:48;;;;;;;;;;;;;;;2.90;75.63;102666.06;4121666;28;20751;-63
2023/02/04 05:15:50;;;;;;;;;;;;;;;2.88;75.63;102670.59;4122214;28;20412;-63
2023/02/04 05:17:52;;;;;;;;;;;;;;;2.86;75.50;102668.00;4122338;28;20520;-63
2023/02/04 05:19:54;;;;;;;;;;;;;;;2.87;75.76;102677.75;4120386;28;20040;-63
2023/02/04 05:22:00;;;;;;;;;;;;;;;2.85;75.88;102684.97;4121631;28;20369;-63
2023/02/04 05:24:05;;;;;;;;;;;;;;;2.83;75.82;102692.16;4120603;28;20444;-61
2023/02/04 05:26:07;;;;;;;;;;;;;;;2.81;76.00;102696.72;4122051;28;20008;-63
2023/02/04 05:28:09;;;;;;;;;;;;;;;2.80;75.92;102699.47;4122131;28;20032;-63
2023/02/04 05:30:11;;;;;;;;;;;;;;;2.80;76.30;102704.81;4121954;28;20025;-62
2023/02/04 05:32:13;;;;;;;;;;;;;;;2.81;76.43;102711.88;4122106;28;20031;-62
2023/02/04 05:34:15;;;;;;;;;;;;;;;2.78;76.28;102706.72;4121796;28;20017;-62
2023/02/04 05:36:17;;;;;;;;;;;;;;;2.75;76.45;102713.06;4121360;28;19930;-63
2023/02/04 05:38:19;;;;;;;;;;;;;;;2.73;76.23;102714.06;4122033;28;20440;-61
2023/02/04 05:40:22;;;;;;;;;;;;;;;2.69;76.48;102719.56;4120840;28;20025;-63
2023/02/04 05:42:24;;;;;;;;;;;;;;;2.65;76.61;102726.00;4121038;28;20477;-60
2023/02/04 05:44:26;;;;;;;;;;;;;;;2.65;77.04;102727.78;4121081;28;20029;-63
2023/02/04 05:46:28;;;;;;;;;;;;;;;2.68;77.21;102739.19;4126407;28;20069;-63
2023/02/04 05:48:30;;;;;;;;;;;;;;;2.68;77.02;102739.19;4127207;28;20424;-63
2023/02/04 05:50:32;;;;;;;;;;;;;;;2.67;76.90;102749.94;4127776;28;20021;-61
2023/02/04 05:52:43;;;;;;;;;;;;;;;2.65;76.98;102760.69;4126700;28;20382;-62
2023/02/04 05:54:45;;;;;;;;;;;;;;;2.62;76.91;102765.31;4127268;28;20029;-63
2023/02/04 05:56:50;;;;;;;;;;;;;;;2.57;76.68;102762.00;4126581;28;19926;-63
2023/02/04 05:58:52;;;;;;;;;;;;;;;2.58;77.39;102771.72;4126480;28;20032;-61
2023/02/04 06:00:54;;;;;;;;;;;;;;;2.56;77.40;102768.28;4126251;28;20036;-62
2023/02/04 06:02:56;;;;;;;;;;;;;;;2.55;77.25;102772.72;4126441;28;20030;-62
2023/02/04 06:04:58;;;;;;;;;;;;;;;2.56;77.50;102778.94;4126756;28;20033;-63
2023/02/04 06:07:00;;;;;;;;;;;;;;;2.57;77.56;102784.22;4126586;28;20020;-62
2023/02/04 06:09:02;;;;;;;;;;;;;;;2.58;77.24;102795.75;4127311;28;19997;-63
2023/02/04 06:11:04;;;;;;;;;;;;;;;2.54;77.18;102800.38;4125488;28;20044;-63
2023/02/04 06:13:07;;;;;;;;;;;;;;;2.51;77.54;102800.53;4126802;28;20020;-64
2023/02/04 06:15:10;;;;;;;;;;;;;;;2.50;77.72;102809.44;4126838;28;20032;-63
2023/02/04 06:17:12;;;;;;;;;;;;;;;2.53;77.58;102811.97;4126502;28;19955;-63
2023/02/04 06:19:14;;;;;;;;;;;;;;;2.55;77.53;102817.22;4126651;28;20020;-63
2023/02/04 06:21:17;;;;;;;;;;;;;;;2.57;77.24;102816.22;4125090;28;20017;-63
2023/02/04 06:23:18;;;;;;;;;;;;;;;2.56;76.95;102819.81;4127890;28;20020;-61
2023/02/04 06:25:20;;;;;;;;;;;;;;;2.57;77.18;102823.34;4126392;28;20033;-63
2023/02/04 06:27:23;;;;;;;;;;;;;;;2.55;77.06;102831.41;4126767;28;20012;-63
2023/02/04 06:29:26;;;;;;;;;;;;;;;2.55;76.79;102831.41;4125622;28;20021;-63
2023/02/04 06:31:28;;;;;;;;;;;;;;;2.56;76.99;102838.50;4126806;28;20026;-62
2023/02/04 06:33:30;;;;;;;;;;;;;;;2.57;76.86;102844.69;4126203;28;20447;-63
2023/02/04 06:35:32;;;;;;;;;;;;;;;2.53;77.07;102844.84;4126842;28;20024;-63
2023/02/04 06:37:34;;;;;;;;;;;;;;;2.56;77.13;102853.66;4126518;28;20476;-63
2023/02/04 06:39:36;;;;;;;;;;;;;;;2.55;77.21;102850.09;4125300;28;20380;-62
2023/02/04 06:41:38;;;;;;;;;;;;;;;2.51;77.24;102859.19;4126268;28;20045;-62
2023/02/04 06:43:39;;;;;;;;;;;;;;;2.47;76.77;102866.47;4125948;28;20024;-60
2023/02/04 06:45:43;;;;;;;;;;;;;;;2.44;76.88;102866.59;4125417;28;20025;-60
2023/02/04 06:47:45;;;;;;;;;;;;;;;2.44;77.34;102861.28;4126765;28;20021;-61
2023/02/04 06:49:47;;;;;;;;;;;;;;;2.40;77.16;102865.03;4126634;28;20021;-61
2023/02/04 06:51:49;;;;;;;;;;;;;;;2.36;77.03;102870.59;4126367;28;20021;-61
2023/02/04 06:53:51;;;;;;;;;;;;;;;2.31;77.17;102874.31;4125300;28;20475;-61
2023/02/04 06:55:53;;;;;;;;;;;;;;;2.29;77.17;102872.69;4126181;28;20017;-61
2023/02/04 06:57:55;;;;;;;;;;;;;;;2.29;77.80;102875.34;4123012;28;19957;-59
2023/02/04 06:59:57;;;;;;;;;;;;;;;2.28;77.83;102871.78;4123367;28;20020;-61
2023/02/04 07:02:00;;;;;;;;;;;;;;;2.28;78.14;102873.59;4123627;28;20021;-61
2023/02/04 07:04:02;;;;;;;;;;;;;;;2.29;78.10;102876.19;4122722;28;20009;-61
2023/02/04 07:06:04;;;;;;;;;;;;;;;2.27;77.92;102875.41;4123865;28;20017;-60
2023/02/04 07:08:06;;;;;;;;;;;;;;;2.23;78.12;102879.16;4123824;28;20033;-61
2023/02/04 07:10:09;;;;;;;;;;;;;;;2.22;78.20;102887.22;4123116;28;20017;-61
2023/02/04 07:12:11;;;;;;;;;;;;;;;2.23;78.36;102889.81;4123491;28;20353;-62
2023/02/04 07:14:13;;;;;;;;;;;;;;;2.24;78.49;102888.00;4123731;28;20029;-62
2023/02/04 07:16:18;;;;;;;;;;;;;;;2.22;78.47;102885.41;4123195;28;20469;-62
2023/02/04 07:18:23;;;;;;;;;;;;;;;2.21;78.60;102881.03;4122629;28;19929;-62
2023/02/04 07:20:29;;;;;;;;;;;;;;;2.20;78.31;102881.94;4120481;28;20440;-61
2023/02/04 07:22:31;;;;;;;;;;;;;;;2.18;78.51;102883.81;4122531;28;20041;-62
2023/02/04 07:24:33;;;;;;;;;;;;;;;2.16;78.30;102885.69;4122381;28;20036;-60
2023/02/04 07:26:35;;;;;;;;;;;;;;;2.15;78.18;102889.31;4122237;28;20016;-61
2023/02/04 07:28:36;;;;;;;;;;;;;;;2.12;78.41;102892.09;4122010;28;20057;-62
2023/02/04 07:30:38;;;;;;;;;;;;;;;2.13;78.77;102897.38;4122358;28;20451;-60
2023/02/04 07:32:40;;;;;;;;;;;;;;;2.14;78.61;102903.56;4123444;28;20025;-61
2023/02/04 07:34:44;;;;;;;;;;;;;;;2.16;78.92;102905.22;4122725;28;20016;-61
2023/02/04 07:36:46;;;;;;;;;;;;;;;2.19;79.16;102911.34;4123491;28;20476;-62
2023/02/04 07:38:47;;;;;;;;;;;;;;;2.21;79.30;102909.47;4122564;28;20033;-61
2023/02/04 07:40:49;;;;;;;;;;;;;;;2.22;79.48;102919.22;4123373;28;20048;-62
2023/02/04 07:42:51;;;;;;;;;;;;;;;2.25;79.73;102921.75;4122846;28;20024;-62
2023/02/04 07:44:56;;;;;;;;;;;;;;;2.27;79.80;102925.19;4122601;28;20108;-62
2023/02/04 07:46:59;;;;;;;;;;;;;;;2.30;79.96;102933.06;4119340;28;20013;-62
2023/02/04 07:49:01;;;;;;;;;;;;;;;2.37;79.77;102944.28;4120958;28;20020;-61
2023/02/04 07:51:05;;;;;;;;;;;;;;;2.42;79.66;102950.31;4120866;28;20024;-60
2023/02/04 07:53:07;;;;;;;;;;;;;;;2.46;79.37;102952.78;4120115;28;20012;-62
2023/02/04 07:55:09;;;;;;;;;;;;;;;2.53;79.32;102954.22;4121114;28;20056;-62
2023/02/04 07:57:11;;;;;;;;;;;;;;;2.58;79.79;102959.34;4121225;28;20432;-62
2023/02/04 07:59:13;;;;;;;;;;;;;;;2.61;79.58;102955.66;4120515;28;19926;-63
2023/02/04 08:01:15;;;;;;;;;;;;;;;2.66;79.52;102970.50;4121697;28;20020;-62
2023/02/04 08:03:17;;;;;;;;;;;;;;;2.73;79.22;102976.47;4122077;28;20028;-62
2023/02/04 08:05:19;;;;;;;;;;;;;;;2.78;78.83;102978.91;4121630;28;20016;-62
2023/02/04 08:07:22;;;;;;;;;;;;;;;2.82;78.80;102989.38;4120506;28;20017;-62
2023/02/04 08:09:26;;;;;;;;;;;;;;;2.86;78.57;102988.28;4119963;28;20353;-62
2023/02/04 08:11:27;;;;;;;;;;;;;;;2.91;78.73;102989.88;4120516;28;20013;-62
2023/02/04 08:13:29;;;;;;;;;;;;;;;2.92;78.94;102991.63;4120628;28;20301;-62
2023/02/04 08:15:31;;;;;;;;;;;;;;;2.97;78.52;102993.13;4121394;28;20374;-62
2023/02/04 08:17:33;;;;;;;;;;;;;;;3.02;78.26;102995.56;4121989;28;20013;-62
2023/02/04 08:19:35;;;;;;;;;;;;;;;3.05;77.81;102996.28;4120487;28;20025;-62
2023/02/04 08:21:37;;;;;;;;;;;;;;;3.09;77.72;102994.34;4119851;28;20475;-61
2023/02/04 08:23:41;;;;;;;;;;;;;;;3.14;77.78;102994.13;4121653;28;20432;-61
2023/02/04 08:25:44;;;;;;;;;;;;;;;3.17;77.64;102996.66;4120445;28;20472;-62
2023/02/04 08:27:46;;;;;;;;;;;;;;;3.22;77.52;103006.16;4120259;28;20013;-62
2023/02/04 08:29:48;;;;;;;;;;;;;;;3.29;77.43;103013.88;4121947;28;20024;-62
2023/02/04 08:31:50;;;;;;;;;;;;;;;3.33;77.28;103013.66;4121492;28;20032;-61
2023/02/04 08:33:52;;;;;;;;;;;;;;;3.37;76.83;103015.25;4121804;28;20365;-62
2023/02/04 08:35:54;;;;;;;;;;;;;;;3.42;76.81;103013.22;4120932;28;20028;-61
2023/02/04 08:37:56;;;;;;;;;;;;;;;3.48;76.77;103020.09;4122777;28;20009;-62
2023/02/04 08:39:59;;;;;;;;;;;;;;;3.53;75.86;103022.53;4121468;28;20389;-63
2023/02/04 08:42:01;;;;;;;;;;;;;;;3.56;76.17;103019.72;4121162;28;20024;-62
2023/02/04 08:44:03;;;;;;;;;;;;;;;3.61;76.25;103021.19;4121935;28;20025;-63
2023/02/04 08:46:05;;;;;;;;;;;;;;;3.69;76.66;103025.31;4120314;28;20100;-62
2023/02/04 08:48:08;;;;;;;;;;;;;;;3.76;76.22;103032.97;4118963;28;19933;-62
2023/02/04 08:50:10;;;;;;;;;;;;;;;3.83;75.88;103028.16;4118962;28;20044;-62
2023/02/04 08:52:12;;;;;;;;;;;;;;;3.88;75.46;103022.59;4118346;28;20032;-61
2023/02/04 08:54:14;;;;;;;;;;;;;;;3.93;75.45;103029.44;4117567;28;20032;-62
2023/02/04 08:56:19;;;;;;;;;;;;;;;4.00;75.32;103026.44;4118766;28;20036;-65
2023/02/04 08:58:21;;;;;;;;;;;;;;;4.05;75.67;103027.94;4119869;28;20020;-64
2023/02/04 09:00:23;;;;;;;;;;;;;;;4.11;75.30;103035.66;4119789;28;20033;-64
2023/02/04 09:02:25;;;;;;;;;;;;;;;4.15;75.21;103033.69;4120025;28;20012;-64
2023/02/04 09:04:27;;;;;;;;;;;;;;;4.21;74.85;103048.56;4120178;28;20021;-64
2023/02/04 09:06:29;;;;;;;;;;;;;;;4.24;74.74;103051.94;4118420;28;20443;-65
2023/02/04 09:08:31;;;;;;;;;;;;;;;4.27;74.62;103053.59;4118619;28;20033;-64
2023/02/04 09:10:33;;;;;;;;;;;;;;;4.29;74.54;103055.22;4118176;28;20017;-65
2023/02/04 09:12:36;;;;;;;;;;;;;;;4.31;73.89;103061.38;4118888;28;20020;-65
2023/02/04 09:14:39;;;;;;;;;;;;;;;4.31;72.46;103058.72;4119058;28;20021;-65
2023/02/04 09:16:41;;;;;;;;;;;;;;;4.33;73.24;103067.50;4118005;28;20052;-64
2023/02/04 09:18:42;;;;;;;;;;;;;;;4.37;73.35;103067.34;4118502;28;20096;-64
2023/02/04 09:20:44;;;;;;;;;;;;;;;4.41;73.34;103063.59;4117663;28;19981;-64
2023/02/04 09:22:49;;;;;;;;;;;;;;;4.44;73.56;103072.31;4118892;28;20021;-65
2023/02/04 09:24:50;;;;;;;;;;;;;;;4.49;73.06;103072.06;4118331;28;20017;-63
2023/02/04 09:26:52;;;;;;;;;;;;;;;4.51;72.83;103064.81;4118501;28;20056;-64
2023/02/04 09:28:56;;;;;;;;;;;;;;;4.54;72.80;103077.19;4118751;28;20025;-64
2023/02/04 09:30:59;;;;;;;;;;;;;;;4.55;73.21;103086.97;4118033;28;20016;-64
2023/02/04 09:33:01;;;;;;;;;;;;;;;4.58;73.23;103086.81;4118079;28;20024;-64
2023/02/04 09:35:03;;;;;;;;;;;;;;;4.59;73.59;103089.41;4119416;28;20056;-64
2023/02/04 09:37:04;;;;;;;;;;;;;;;4.64;73.47;103102.50;4119173;28;20360;-64
2023/02/04 09:39:08;;;;;;;;;;;;;;;4.68;73.96;103109.44;4118026;28;20480;-64
2023/02/04 09:41:10;;;;;;;;;;;;;;;4.72;73.68;103104.78;4117869;28;19930;-63
2023/02/04 09:43:13;;;;;;;;;;;;;;;4.75;72.83;103108.19;4118856;28;20005;-63
2023/02/04 09:45:17;;;;;;;;;;;;;;;4.76;73.78;103109.03;4118264;28;20016;-64
2023/02/04 09:47:19;;;;;;;;;;;;;;;4.79;73.72;103116.91;4118651;28;20361;-64
2023/02/04 09:49:21;;;;;;;;;;;;;;;4.82;73.60;103104.22;4118174;28;20041;-64
2023/02/04 09:51:23;;;;;;;;;;;;;;;4.86;73.45;103100.44;4118835;28;20744;-64
2023/02/04 09:53:25;;;;;;;;;;;;;;;4.88;73.17;103106.56;4120150;28;20029;-64
2023/02/04 09:55:28;;;;;;;;;;;;;;;4.90;73.11;103108.31;4120354;28;20024;-64
2023/02/04 09:57:30;;;;;;;;;;;;;;;4.92;72.97;103109.09;4120504;28;20012;-65
2023/02/04 09:59:33;;;;;;;;;;;;;;;4.93;73.71;103119.72;4119862;28;20016;-64
2023/02/04 10:01:36;;;;;;;;;;;;;;;4.95;72.89;103119.63;4121306;28;20443;-64
2023/02/04 10:03:45;;;;;;;;;;;;;;;4.96;72.74;103118.72;4120345;28;20438;-64
2023/02/04 10:05:47;;;;;;;;;;;;;;;4.98;72.84;103112.31;4120470;28;20029;-64
2023/02/04 10:07:49;;;;;;;;;;;;;;;5.00;72.12;103121.13;4120256;28;20013;-65
2023/02/04 10:09:51;;;;;;;;;;;;;;;5.00;72.67;103129.19;4120106;28;20017;-65
2023/02/04 10:11:53;;;;;;;;;;;;;;;4.99;72.61;103119.41;4120580;28;20523;-64
2023/02/04 10:13:55;;;;;;;;;;;;;;;5.01;73.10;103124.66;4121083;28;20021;-64
2023/02/04 10:15:57;;;;;;;;;;;;;;;5.03;72.89;103112.94;4121244;28;20044;-64
2023/02/04 10:18:01;;;;;;;;;;;;;;;5.07;72.82;103131.53;4119680;28;20017;-65
2023/02/04 10:20:03;;;;;;;;;;;;;;;5.09;73.22;103127.78;4120579;28;20025;-64
2023/02/04 10:22:07;;;;;;;;;;;;;;;5.11;72.71;103133.06;4121385;28;20024;-65
2023/02/04 10:24:10;;;;;;;;;;;;;;;5.11;71.40;103125.91;4120436;28;20354;-64
2023/02/04 10:26:13;;;;;;;;;;;;;;;5.10;71.75;103126.88;4119892;28;20017;-64
2023/02/04 10:28:14;;;;;;;;;;;;;;;5.12;71.78;103121.41;4120072;28;20024;-64
2023/02/04 10:30:18;;;;;;;;;;;;;;;5.12;70.93;103124.09;4121244;28;20480;-64
2023/02/04 10:32:26;;;;;;;;;;;;;;;5.12;71.47;103134.81;4122685;28;20022;-64
2023/02/04 10:34:36;;;;;;;;;;;;;;;5.12;71.39;103134.81;4124086;28;20042;-64
2023/02/04 10:36:38;;;;;;;;;;;;;;;5.11;72.27;103128.59;4124605;28;20049;-64
2023/02/04 10:38:40;;;;;;;;;;;;;;;5.17;72.46;103140.78;4124021;28;20026;-64